createdAt,value
2023-03-27T00:01:20.771Z,22.05
2023-03-27T00:03:49.947Z,20.23
2023-03-27T00:06:18.521Z,21.70
2023-03-27T00:08:47.099Z,19.23
2023-03-27T00:11:14.587Z,20.35
2023-03-27T00:13:42.553Z,18.65
2023-03-27T00:16:17.676Z,19.98
2023-03-27T00:18:44.940Z,16.98
2023-03-27T00:21:11.697Z,18.65
2023-03-27T00:23:38.359Z,15.80
2023-03-27T00:26:05.465Z,17.25
2023-03-27T00:28:32.349Z,17.77
2023-03-27T00:30:59.314Z,15.35
2023-03-27T00:33:26.269Z,17.85
2023-03-27T00:35:53.298Z,15.07
2023-03-27T00:38:21.111Z,14.85
2023-03-27T00:40:50.761Z,16.40
2023-03-27T00:43:21.554Z,15.85
2023-03-27T00:45:52.035Z,14.18
2023-03-27T00:48:20.680Z,15.27
2023-03-27T00:50:49.593Z,16.15
2023-03-27T00:53:19.600Z,15.80
2023-03-27T00:55:49.683Z,12.02
2023-03-27T00:58:22.271Z,14.05
2023-03-27T01:00:53.021Z,14.27
2023-03-27T01:03:21.429Z,14.07
2023-03-27T01:05:50.233Z,13.35
2023-03-27T01:08:17.254Z,14.45
2023-03-27T01:11:04.132Z,12.43
2023-03-27T01:13:58.489Z,11.27
2023-03-27T01:16:49.517Z,12.23
2023-03-27T01:19:57.992Z,12.13
2023-03-27T01:22:35.438Z,11.55
2023-03-27T01:25:26.354Z,11.20
2023-03-27T01:28:26.644Z,10.70
2023-03-27T01:31:22.467Z,12.10
2023-03-27T01:34:06.930Z,10.90
2023-03-27T01:36:46.816Z,12.25
2023-03-27T01:39:16.292Z,10.00
2023-03-27T01:41:53.680Z,10.63
2023-03-27T01:44:43.358Z,10.43
2023-03-27T01:47:27.284Z,10.32
2023-03-27T01:50:21.475Z,9.73
2023-03-27T01:52:56.269Z,9.35
2023-03-27T01:55:28.077Z,10.43
2023-03-27T01:58:03.144Z,11.20
2023-03-27T02:00:50.985Z,7.30
2023-03-27T02:03:33.654Z,8.35
2023-03-27T02:06:16.923Z,8.80
2023-03-27T02:08:53.309Z,9.60
2023-03-27T02:11:22.977Z,9.57
2023-03-27T02:13:56.085Z,9.18
2023-03-27T02:16:28.738Z,6.93
2023-03-27T02:19:00.826Z,7.67
2023-03-27T02:21:27.926Z,8.30
2023-03-27T02:23:56.624Z,8.07
2023-03-27T02:26:23.786Z,7.70
2023-03-27T02:29:28.427Z,7.82
2023-03-27T02:32:11.446Z,7.28
2023-03-27T02:34:51.046Z,7.93
2023-03-27T02:37:36.389Z,6.85
2023-03-27T02:40:14.160Z,6.18
2023-03-27T02:43:09.896Z,6.72
2023-03-27T02:45:54.567Z,5.88
2023-03-27T02:48:38.814Z,5.22
2023-03-27T02:51:47.673Z,4.85
2023-03-27T02:54:28.991Z,6.63
2023-03-27T02:57:01.526Z,4.97
2023-03-27T02:59:42.518Z,5.30
2023-03-27T03:02:16.716Z,5.72
2023-03-27T03:04:51.024Z,5.13
2023-03-27T03:07:18.587Z,6.13
2023-03-27T03:09:45.243Z,6.18
2023-03-27T03:12:12.150Z,5.00
2023-03-27T03:14:43.972Z,5.28
2023-03-27T03:17:11.976Z,5.32
2023-03-27T03:19:38.859Z,6.53
2023-03-27T03:22:06.132Z,5.90
2023-03-27T03:24:33.367Z,7.40
2023-03-27T03:27:02.452Z,5.85
2023-03-27T03:29:30.193Z,3.92
2023-03-27T03:31:57.335Z,4.60
2023-03-27T03:34:24.061Z,5.05
2023-03-27T03:36:50.631Z,4.93
2023-03-27T03:39:17.582Z,5.40
2023-03-27T03:41:44.160Z,5.40
2023-03-27T03:44:10.730Z,5.00
2023-03-27T03:46:37.531Z,3.97
2023-03-27T03:49:04.959Z,4.43
2023-03-27T03:51:32.477Z,4.40
2023-03-27T03:53:59.314Z,4.22
2023-03-27T03:56:27.749Z,4.07
2023-03-27T03:58:54.314Z,4.68
2023-03-27T04:01:22.491Z,4.55
2023-03-27T04:03:49.891Z,3.88
2023-03-27T04:06:25.612Z,5.45
2023-03-27T04:08:53.101Z,3.45
2023-03-27T04:11:20.055Z,3.63
2023-03-27T04:13:46.639Z,4.28
2023-03-27T04:16:13.318Z,4.20
2023-03-27T04:18:41.323Z,4.15
2023-03-27T04:21:14.465Z,3.65
2023-03-27T04:23:42.807Z,3.08
2023-03-27T04:26:12.268Z,3.58
2023-03-27T04:28:39.613Z,3.33
2023-03-27T04:31:07.911Z,4.22
2023-03-27T04:33:39.893Z,3.88
2023-03-27T04:36:08.481Z,4.47
2023-03-27T04:38:40.848Z,3.95
2023-03-27T04:41:07.637Z,4.78
2023-03-27T04:43:36.738Z,6.68
2023-03-27T04:46:06.386Z,7.53
2023-03-27T04:48:34.199Z,5.57
2023-03-27T04:51:00.758Z,5.75
2023-03-27T04:53:30.265Z,6.63
2023-03-27T04:55:57.308Z,6.70
2023-03-27T04:58:25.786Z,7.25
2023-03-27T05:00:55.935Z,7.38
2023-03-27T05:03:28.272Z,7.60
2023-03-27T05:05:55.168Z,8.88
2023-03-27T05:08:21.868Z,7.80
2023-03-27T05:10:48.341Z,8.23
2023-03-27T05:13:15.392Z,9.65
2023-03-27T05:15:42.160Z,8.13
2023-03-27T05:18:09.092Z,7.88
2023-03-27T05:20:36.372Z,8.55
2023-03-27T05:23:03.239Z,9.25
2023-03-27T05:25:31.001Z,8.88
2023-03-27T05:27:58.117Z,11.60
2023-03-27T05:30:26.898Z,9.50
2023-03-27T05:32:54.120Z,10.27
2023-03-27T05:35:23.753Z,10.48
2023-03-27T05:37:53.110Z,10.13
2023-03-27T05:40:28.098Z,9.18
2023-03-27T05:42:56.408Z,8.32
2023-03-27T05:45:23.351Z,8.43
2023-03-27T05:47:56.653Z,9.82
2023-03-27T05:50:29.118Z,8.55
2023-03-27T05:53:00.640Z,9.05
2023-03-27T05:55:28.048Z,9.68
2023-03-27T05:57:54.841Z,8.73
2023-03-27T06:00:27.207Z,10.30
2023-03-27T06:02:56.374Z,9.30
2023-03-27T06:05:24.034Z,9.50
2023-03-27T06:07:51.506Z,9.52
2023-03-27T06:10:20.297Z,8.65
2023-03-27T06:12:48.943Z,9.82
2023-03-27T06:15:16.089Z,9.15
2023-03-27T06:17:43.978Z,9.65
2023-03-27T06:20:13.053Z,8.27
2023-03-27T06:22:44.775Z,8.48
2023-03-27T06:25:11.469Z,7.97
2023-03-27T06:27:38.057Z,6.72
2023-03-27T06:30:05.399Z,8.20
2023-03-27T06:32:32.017Z,6.70
2023-03-27T06:34:58.541Z,7.35
2023-03-27T06:37:25.100Z,8.93
2023-03-27T06:39:52.108Z,9.15
2023-03-27T06:42:18.663Z,9.40
2023-03-27T06:44:45.436Z,8.93
2023-03-27T06:47:12.904Z,6.43
2023-03-27T06:49:39.550Z,8.95
2023-03-27T06:52:06.965Z,7.03
2023-03-27T06:54:33.768Z,7.88
2023-03-27T06:57:01.640Z,7.38
2023-03-27T06:59:28.196Z,7.28
2023-03-27T07:01:54.735Z,6.93
2023-03-27T07:04:21.338Z,7.20
2023-03-27T07:06:48.985Z,5.93
2023-03-27T07:09:15.715Z,6.85
2023-03-27T07:11:42.508Z,6.72
2023-03-27T07:14:09.147Z,5.40
2023-03-27T07:16:35.702Z,5.78
2023-03-27T07:19:02.669Z,7.38
2023-03-27T07:21:29.575Z,5.32
2023-03-27T07:23:56.314Z,5.65
2023-03-27T07:26:22.865Z,5.53
2023-03-27T07:28:51.653Z,4.90
2023-03-27T07:33:48.461Z,3.90
2023-03-27T07:36:16.174Z,4.05
2023-03-27T07:38:42.694Z,5.03
2023-03-27T07:41:09.313Z,3.40
2023-03-27T07:43:35.902Z,4.88
2023-03-27T07:46:03.218Z,7.35
2023-03-27T07:48:30.496Z,5.03
2023-03-27T07:51:07.214Z,5.15
2023-03-27T07:53:39.691Z,5.78
2023-03-27T07:56:08.744Z,3.83
2023-03-27T07:58:35.389Z,6.03
2023-03-27T08:01:02.859Z,3.83
2023-03-27T08:03:30.848Z,5.95
2023-03-27T08:05:59.824Z,3.58
2023-03-27T08:08:27.159Z,3.92
2023-03-27T08:10:57.941Z,3.70
2023-03-27T08:13:24.640Z,4.78
2023-03-27T08:15:51.376Z,5.10
2023-03-27T08:18:17.981Z,4.25
2023-03-27T08:20:45.635Z,5.75
2023-03-27T08:23:12.302Z,3.47
2023-03-27T08:25:38.876Z,3.85
2023-03-27T08:28:05.469Z,4.00
2023-03-27T08:30:32.362Z,2.78
2023-03-27T08:33:00.012Z,2.70
2023-03-27T08:35:26.687Z,1.85
2023-03-27T08:37:54.008Z,3.40
2023-03-27T08:40:26.087Z,6.28
2023-03-27T08:42:57.115Z,5.05
2023-03-27T08:45:31.790Z,4.60
2023-03-27T08:48:08.262Z,3.70
2023-03-27T08:50:41.956Z,4.10
2023-03-27T08:55:44.599Z,2.30
2023-03-27T08:58:30.455Z,2.60
2023-03-27T09:01:06.997Z,2.97
2023-03-27T09:03:47.643Z,1.70
2023-03-27T09:06:27.658Z,3.08
2023-03-27T09:09:09.285Z,2.70
2023-03-27T09:11:49.432Z,3.22
2023-03-27T09:14:22.144Z,2.85
2023-03-27T09:16:50.288Z,2.15
2023-03-27T09:19:27.151Z,1.15
2023-03-27T09:22:25.142Z,2.67
2023-03-27T09:24:57.943Z,3.10
2023-03-27T09:27:29.816Z,3.10
2023-03-27T09:30:04.917Z,2.75
2023-03-27T09:32:33.293Z,4.03
2023-03-27T09:35:00.766Z,2.70
2023-03-27T09:37:27.571Z,3.03
2023-03-27T09:39:55.189Z,1.42
2023-03-27T09:42:26.343Z,4.18
2023-03-27T09:44:59.477Z,2.35
2023-03-27T09:47:38.293Z,2.65
2023-03-27T09:50:47.032Z,2.28
2023-03-27T09:53:16.879Z,1.92
2023-03-27T09:56:06.045Z,2.95
2023-03-27T09:58:43.536Z,2.53
2023-03-27T10:01:16.797Z,3.92
2023-03-27T10:03:51.985Z,1.77
2023-03-27T10:06:30.190Z,1.88
2023-03-27T10:09:01.111Z,2.83
2023-03-27T10:11:32.746Z,3.22
2023-03-27T10:14:01.659Z,1.70
2023-03-27T10:16:29.183Z,1.40
2023-03-27T10:18:59.906Z,2.22
2023-03-27T10:21:35.496Z,2.47
2023-03-27T10:24:18.749Z,1.27
2023-03-27T10:26:47.629Z,1.27
2023-03-27T10:29:21.967Z,2.42
2023-03-27T10:31:51.995Z,1.40
2023-03-27T10:34:39.836Z,3.22
2023-03-27T10:37:33.957Z,3.35
2023-03-27T10:40:07.562Z,1.80
2023-03-27T10:45:03.141Z,2.58
2023-03-27T10:47:33.152Z,1.70
2023-03-27T10:50:23.079Z,3.47
2023-03-27T10:53:05.852Z,2.28
2023-03-27T10:55:51.865Z,3.65
2023-03-27T10:58:24.030Z,3.20
2023-03-27T11:00:58.778Z,2.15
2023-03-27T11:03:25.702Z,3.05
2023-03-27T11:05:54.431Z,2.25
2023-03-27T11:08:29.629Z,3.38
2023-03-27T11:11:02.390Z,1.92
2023-03-27T11:13:36.328Z,2.57
2023-03-27T11:16:20.394Z,1.23
2023-03-27T11:18:56.144Z,1.88
2023-03-27T11:21:44.134Z,0.95
2023-03-27T11:24:25.931Z,1.58
2023-03-27T11:27:04.962Z,1.33
2023-03-27T11:29:39.828Z,1.92
2023-03-27T11:32:19.696Z,2.13
2023-03-27T11:34:48.840Z,2.22
2023-03-27T11:37:28.971Z,2.22
2023-03-27T11:40:05.869Z,1.80
2023-03-27T11:42:36.861Z,3.50
2023-03-27T11:45:07.343Z,2.50
2023-03-27T11:47:55.651Z,1.10
2023-03-27T11:50:34.982Z,2.92
2023-03-27T11:53:32.660Z,1.30
2023-03-27T11:56:09.653Z,2.88
2023-03-27T11:59:04.462Z,2.03
2023-03-27T12:01:48.113Z,1.73
2023-03-27T12:04:50.237Z,2.15
2023-03-27T12:07:36.151Z,3.85
2023-03-27T12:10:31.866Z,4.10
2023-03-27T12:13:17.236Z,1.98
2023-03-27T12:16:01.409Z,2.03
2023-03-27T12:18:37.623Z,2.45
2023-03-27T12:21:23.974Z,3.25
2023-03-27T12:24:24.322Z,2.17
2023-03-27T12:27:10.415Z,2.42
2023-03-27T12:29:51.965Z,1.13
2023-03-27T12:32:24.997Z,2.85
2023-03-27T12:34:59.742Z,2.83
2023-03-27T12:37:31.059Z,2.95
2023-03-27T12:40:00.084Z,3.63
2023-03-27T12:42:48.053Z,3.08
2023-03-27T12:45:26.982Z,1.75
2023-03-27T12:48:16.118Z,2.40
2023-03-27T12:50:45.437Z,3.13
2023-03-27T12:53:27.204Z,3.65
2023-03-27T12:56:19.523Z,2.88
2023-03-27T12:58:51.584Z,2.40
2023-03-27T13:01:51.546Z,2.90
2023-03-27T13:04:43.288Z,3.42
2023-03-27T13:07:18.837Z,2.50
2023-03-27T13:09:53.008Z,3.47
2023-03-27T13:12:22.441Z,1.77
2023-03-27T13:15:26.064Z,1.35
2023-03-27T13:17:55.412Z,2.03
2023-03-27T13:20:34.917Z,4.18
2023-03-27T13:23:18.277Z,3.25
2023-03-27T13:26:15.763Z,2.38
2023-03-27T13:28:48.586Z,1.92
2023-03-27T13:31:44.598Z,1.77
2023-03-27T13:34:26.295Z,3.22
2023-03-27T13:37:11.267Z,2.65
2023-03-27T13:39:48.175Z,3.25
2023-03-27T13:42:24.347Z,1.80
2023-03-27T13:45:01.118Z,2.55
2023-03-27T13:47:33.596Z,2.78
2023-03-27T13:50:31.970Z,1.30
2023-03-27T13:53:07.775Z,4.47
2023-03-27T13:55:49.058Z,1.85
2023-03-27T13:58:48.188Z,2.55
2023-03-27T14:01:17.418Z,1.63
2023-03-27T14:03:57.664Z,2.63
2023-03-27T14:06:24.271Z,2.50
2023-03-27T14:09:25.520Z,33.70
2023-03-27T14:11:52.067Z,32.97
2023-03-27T14:14:37.223Z,80.35
2023-03-27T14:17:28.057Z,185.75
2023-03-27T14:20:21.582Z,210.57
2023-03-27T14:23:06.471Z,166.77
2023-03-27T14:25:38.304Z,129.27
2023-03-27T14:28:09.199Z,121.55
2023-03-27T14:30:47.855Z,114.22
2023-03-27T14:33:20.154Z,122.85
2023-03-27T14:35:54.516Z,118.28
2023-03-27T14:38:25.696Z,93.90
2023-03-27T14:40:57.438Z,112.80
2023-03-27T14:43:27.537Z,110.40
2023-03-27T14:45:58.491Z,105.03
2023-03-27T14:48:37.143Z,105.07
2023-03-27T14:51:13.526Z,89.55
2023-03-27T14:53:45.774Z,99.72
2023-03-27T14:56:37.170Z,92.30
2023-03-27T14:59:10.897Z,77.22
2023-03-27T15:01:38.304Z,85.43
2023-03-27T15:04:07.338Z,86.38
2023-03-27T15:06:36.706Z,81.85
2023-03-27T15:09:11.321Z,74.35
2023-03-27T15:11:40.203Z,69.88
2023-03-27T15:14:16.554Z,76.65
2023-03-27T15:16:49.790Z,66.80
2023-03-27T15:19:43.250Z,64.72
2023-03-27T15:22:23.174Z,65.90
2023-03-27T15:24:55.358Z,65.35
2023-03-27T15:27:27.822Z,70.22
2023-03-27T15:30:07.981Z,56.92
2023-03-27T15:32:44.675Z,57.40
2023-03-27T15:35:16.666Z,51.75
2023-03-27T15:37:43.855Z,45.78
2023-03-27T15:40:13.351Z,44.95
2023-03-27T15:42:52.205Z,48.88
2023-03-27T15:45:23.037Z,41.75
2023-03-27T15:48:06.605Z,38.63
2023-03-27T15:50:34.166Z,40.97
2023-03-27T15:53:02.279Z,38.28
2023-03-27T15:55:47.684Z,33.70
2023-03-27T15:58:25.104Z,33.45
2023-03-27T16:00:57.546Z,32.28
2023-03-27T16:03:26.078Z,30.50
2023-03-27T16:05:56.509Z,28.95
2023-03-27T16:08:36.517Z,34.90
2023-03-27T16:11:05.015Z,36.22
2023-03-27T16:13:56.060Z,33.22
2023-03-27T16:16:28.021Z,35.03
2023-03-27T16:18:58.139Z,34.92
2023-03-27T16:21:27.671Z,32.95
2023-03-27T16:23:54.668Z,35.83
2023-03-27T16:26:28.176Z,34.22
2023-03-27T16:28:57.597Z,31.65
2023-03-27T16:31:24.163Z,31.85
2023-03-27T16:33:51.073Z,30.63
2023-03-27T16:36:29.500Z,29.30
2023-03-27T16:38:56.647Z,31.20
2023-03-27T16:41:23.801Z,32.20
2023-03-27T16:43:50.444Z,29.60
2023-03-27T16:46:27.866Z,31.48
2023-03-27T16:48:56.275Z,32.42
2023-03-27T16:51:24.170Z,28.15
2023-03-27T16:53:52.777Z,29.15
2023-03-27T16:56:20.015Z,29.85
2023-03-27T16:58:47.013Z,28.00
2023-03-27T17:01:13.881Z,27.15
2023-03-27T17:03:40.766Z,23.52
2023-03-27T17:06:09.775Z,26.58
2023-03-27T17:08:37.159Z,24.25
2023-03-27T17:11:09.588Z,25.88
2023-03-27T17:13:37.354Z,25.40
2023-03-27T17:16:05.312Z,27.98
2023-03-27T17:18:32.234Z,42.92
2023-03-27T17:20:58.858Z,26.65
2023-03-27T17:23:25.549Z,30.15
2023-03-27T17:25:52.145Z,33.75
2023-03-27T17:28:18.916Z,29.75
2023-03-27T17:30:56.428Z,27.25
2023-03-27T17:33:28.583Z,28.35
2023-03-27T17:35:57.225Z,30.00
2023-03-27T17:38:24.364Z,35.42
2023-03-27T17:40:51.762Z,32.22
2023-03-27T17:43:18.671Z,39.53
2023-03-27T17:45:45.410Z,35.35
2023-03-27T17:48:12.294Z,37.90
2023-03-27T17:50:39.621Z,39.97
2023-03-27T17:53:06.932Z,36.70
2023-03-27T17:55:36.057Z,38.05
2023-03-27T17:58:09.421Z,43.42
2023-03-27T18:00:38.436Z,38.60
2023-03-27T18:03:06.385Z,45.33
2023-03-27T18:05:43.208Z,35.80
2023-03-27T18:08:12.689Z,37.65
2023-03-27T18:10:50.760Z,44.38
2023-03-27T18:13:18.474Z,36.38
2023-03-27T18:15:45.867Z,36.58
2023-03-27T18:18:12.919Z,36.40
2023-03-27T18:20:39.716Z,39.30
2023-03-27T18:23:06.629Z,39.60
2023-03-27T18:25:33.247Z,39.45
2023-03-27T18:27:59.747Z,39.90
2023-03-27T18:30:26.406Z,38.03
2023-03-27T18:32:53.003Z,38.20
2023-03-27T18:35:20.396Z,40.45
2023-03-27T18:37:47.036Z,39.50
2023-03-27T18:40:15.346Z,41.75
2023-03-27T18:42:44.956Z,42.70
2023-03-27T18:45:13.267Z,42.00
2023-03-27T18:47:41.814Z,42.88
2023-03-27T18:50:09.577Z,46.90
2023-03-27T18:52:36.144Z,44.15
2023-03-27T18:55:02.705Z,43.78
2023-03-27T18:57:29.374Z,40.95
2023-03-27T18:59:55.996Z,43.60
2023-03-27T19:02:22.731Z,42.85
2023-03-27T19:04:49.385Z,42.53
2023-03-27T19:07:16.778Z,45.33
2023-03-27T19:09:43.515Z,43.78
2023-03-27T19:12:11.398Z,42.40
2023-03-27T19:14:37.978Z,42.22
2023-03-27T19:17:05.223Z,44.28
2023-03-27T19:19:32.095Z,44.85
2023-03-27T19:21:58.766Z,43.13
2023-03-27T19:24:25.307Z,41.70
2023-03-27T19:26:52.732Z,43.45
2023-03-27T19:29:19.447Z,44.03
2023-03-27T19:31:46.155Z,45.40
2023-03-27T19:34:12.670Z,41.10
2023-03-27T19:36:39.265Z,41.90
2023-03-27T19:39:05.851Z,38.30
2023-03-27T19:41:32.398Z,41.85
2023-03-27T19:44:00.201Z,38.95
2023-03-27T19:46:28.425Z,40.42
2023-03-27T19:48:55.852Z,41.78
2023-03-27T19:51:22.831Z,38.95
2023-03-27T19:53:49.556Z,43.42
2023-03-27T19:56:16.143Z,42.40
2023-03-27T19:58:42.773Z,43.83
2023-03-27T20:01:09.457Z,41.22
2023-03-27T20:03:38.330Z,42.67
2023-03-27T20:06:11.813Z,38.85
2023-03-27T20:08:41.053Z,39.63
2023-03-27T20:11:07.942Z,40.95
2023-03-27T20:13:42.507Z,39.80
2023-03-27T20:16:14.897Z,38.40
2023-03-27T20:18:41.842Z,39.50
2023-03-27T20:21:09.634Z,41.70
2023-03-27T20:23:38.492Z,37.25
2023-03-27T20:26:05.250Z,38.00
2023-03-27T20:28:31.777Z,36.80
2023-03-27T20:31:03.484Z,35.80
2023-03-27T20:33:30.211Z,34.50
2023-03-27T20:35:56.836Z,33.45
2023-03-27T20:38:23.897Z,36.25
2023-03-27T20:40:54.297Z,32.60
2023-03-27T20:43:22.922Z,32.50
2023-03-27T20:45:54.820Z,32.08
2023-03-27T20:48:22.051Z,31.63
2023-03-27T20:50:55.413Z,35.08
2023-03-27T20:53:26.253Z,32.20
2023-03-27T20:56:01.134Z,31.23
2023-03-27T20:58:28.650Z,29.50
2023-03-27T21:00:56.726Z,29.08
2023-03-27T21:03:23.344Z,28.20
2023-03-27T21:05:50.565Z,27.80
2023-03-27T21:08:17.236Z,29.10
2023-03-27T21:10:53.608Z,26.73
2023-03-27T21:13:20.601Z,29.00
2023-03-27T21:15:47.765Z,29.85
2023-03-27T21:18:14.309Z,27.70
2023-03-27T21:20:41.116Z,28.20
2023-03-27T21:23:07.613Z,28.98
2023-03-27T21:25:35.334Z,24.95
2023-03-27T21:28:01.938Z,25.45
2023-03-27T21:30:46.600Z,25.35
2023-03-27T21:33:18.029Z,24.90
2023-03-27T21:35:49.068Z,24.65
2023-03-27T21:38:17.302Z,25.77
2023-03-27T21:40:46.411Z,26.40
2023-03-27T21:43:13.114Z,23.45
2023-03-27T21:45:39.742Z,22.92
2023-03-27T21:48:06.616Z,23.65
2023-03-27T21:50:33.225Z,21.73
2023-03-27T21:52:59.728Z,20.60
2023-03-27T21:55:26.257Z,22.27
2023-03-27T21:57:52.797Z,21.45
2023-03-27T22:00:20.081Z,19.58
2023-03-27T22:02:46.684Z,21.35
2023-03-27T22:05:13.427Z,21.50
2023-03-27T22:07:40.444Z,21.73
2023-03-27T22:10:07.353Z,18.77
2023-03-27T22:12:37.429Z,18.90
2023-03-27T22:15:05.869Z,19.88
2023-03-27T22:17:34.636Z,18.67
2023-03-27T22:20:01.195Z,18.85
2023-03-27T22:22:27.841Z,17.90
2023-03-27T22:24:54.338Z,18.17
2023-03-27T22:27:21.008Z,18.90
2023-03-27T22:29:47.565Z,17.10
2023-03-27T22:32:14.064Z,17.30
2023-03-27T22:34:40.580Z,15.82
2023-03-27T22:37:07.340Z,17.42
2023-03-27T22:39:33.848Z,15.73
2023-03-27T22:42:00.467Z,17.52
2023-03-27T22:44:29.716Z,17.13
2023-03-27T22:46:56.514Z,15.13
2023-03-27T22:49:23.074Z,15.93
2023-03-27T22:51:49.608Z,16.83
2023-03-27T22:54:18.447Z,11.50
2023-03-27T22:56:46.313Z,14.82
2023-03-27T22:59:17.348Z,15.32
2023-03-27T23:01:44.630Z,13.55
2023-03-27T23:04:11.217Z,15.13
2023-03-27T23:06:39.041Z,12.95
2023-03-27T23:09:05.636Z,11.57
2023-03-27T23:11:32.148Z,11.60
2023-03-27T23:13:58.725Z,12.32
2023-03-27T23:16:25.325Z,13.40
2023-03-27T23:18:51.883Z,11.43
2023-03-27T23:21:18.432Z,11.48
2023-03-27T23:23:45.720Z,11.02
2023-03-27T23:26:12.862Z,12.65
2023-03-27T23:28:41.650Z,11.35
2023-03-27T23:31:15.060Z,10.43
2023-03-27T23:33:44.437Z,10.88
2023-03-27T23:36:20.210Z,11.90
2023-03-27T23:38:47.014Z,11.88
2023-03-27T23:41:15.023Z,9.50
2023-03-27T23:43:41.827Z,10.27
2023-03-27T23:46:10.485Z,12.20
2023-03-27T23:48:38.954Z,10.27
2023-03-27T23:51:05.897Z,10.35
2023-03-27T23:53:32.980Z,10.45
2023-03-27T23:56:00.528Z,7.78
2023-03-27T23:58:32.287Z,9.27
